createdAt,value
2023-03-12T00:00:04.346Z,100884.28
2023-03-12T00:02:54.837Z,100879.91
2023-03-12T00:05:42.341Z,100875.88
2023-03-12T00:08:28.794Z,100872.44
2023-03-12T00:11:17.206Z,100867.81
2023-03-12T00:14:03.967Z,100863.47
2023-03-12T00:16:51.670Z,100853.00
2023-03-12T00:19:37.994Z,100841.06
2023-03-12T00:22:25.627Z,100830.00
2023-03-12T00:25:14.831Z,100832.13
2023-03-12T00:28:01.212Z,100829.66
2023-03-12T00:30:47.490Z,100834.56
2023-03-12T00:33:35.233Z,100827.44
2023-03-12T00:36:24.994Z,100828.53
2023-03-12T00:39:11.490Z,100818.16
2023-03-12T00:41:57.928Z,100820.84
2023-03-12T00:44:44.448Z,100818.88
2023-03-12T00:47:31.426Z,100812.81
2023-03-12T00:50:19.364Z,100808.72
2023-03-12T00:53:06.118Z,100821.50
2023-03-12T00:55:52.722Z,100812.63
2023-03-12T00:58:39.127Z,100802.81
2023-03-12T01:01:27.573Z,100795.75
2023-03-12T01:04:14.401Z,100787.50
2023-03-12T01:07:02.293Z,100789.72
2023-03-12T01:09:48.855Z,100780.06
2023-03-12T01:12:35.451Z,100781.88
2023-03-12T01:15:21.960Z,100787.63
2023-03-12T01:18:08.430Z,100792.56
2023-03-12T01:20:55.232Z,100788.50
2023-03-12T01:23:42.850Z,100785.97
2023-03-12T01:26:29.273Z,100785.97
2023-03-12T01:29:15.699Z,100790.19
2023-03-12T01:32:02.067Z,100779.09
2023-03-12T01:34:48.593Z,100783.19
2023-03-12T01:37:35.381Z,100777.59
2023-03-12T01:40:27.803Z,100780.84
2023-03-12T01:43:25.792Z,100779.56
2023-03-12T01:46:25.339Z,100775.59
2023-03-12T01:49:16.991Z,100767.47
2023-03-12T01:52:05.755Z,100770.56
2023-03-12T01:55:02.595Z,100762.41
2023-03-12T01:57:56.184Z,100756.91
2023-03-12T02:00:42.804Z,100753.56
2023-03-12T02:03:30.034Z,100755.94
2023-03-12T02:06:20.270Z,100740.31
2023-03-12T02:09:08.790Z,100743.41
2023-03-12T02:11:55.207Z,100743.97
2023-03-12T02:14:43.798Z,100742.84
2023-03-12T02:17:31.264Z,100734.84
2023-03-12T02:20:23.402Z,100725.41
2023-03-12T02:23:13.655Z,100727.06
2023-03-12T02:26:03.347Z,100727.06
2023-03-12T02:28:51.403Z,100714.84
2023-03-12T02:31:41.823Z,100709.94
2023-03-12T02:34:28.020Z,100710.50
2023-03-12T02:37:14.189Z,100711.91
2023-03-12T02:40:06.005Z,100704.59
2023-03-12T02:42:55.400Z,100698.28
2023-03-12T02:45:42.153Z,100695.00
2023-03-12T02:48:31.345Z,100687.44
2023-03-12T02:51:17.779Z,100683.78
2023-03-12T02:54:03.958Z,100679.84
2023-03-12T02:56:50.755Z,100677.59
2023-03-12T02:59:39.150Z,100667.91
2023-03-12T03:02:26.956Z,100665.94
2023-03-12T03:05:13.839Z,100660.47
2023-03-12T03:08:00.633Z,100648.91
2023-03-12T03:10:47.510Z,100645.28
2023-03-12T03:13:34.657Z,100654.69
2023-03-12T03:16:23.579Z,100658.09
2023-03-12T03:19:11.246Z,100659.91
2023-03-12T03:21:57.656Z,100653.31
2023-03-12T03:24:43.881Z,100642.88
2023-03-12T03:27:37.228Z,100642.44
2023-03-12T03:30:23.856Z,100644.41
2023-03-12T03:33:13.602Z,100638.66
2023-03-12T03:36:01.718Z,100636.25
2023-03-12T03:38:50.641Z,100630.22
2023-03-12T03:41:38.185Z,100613.22
2023-03-12T03:44:24.389Z,100615.47
2023-03-12T03:47:10.952Z,100621.63
2023-03-12T03:49:58.863Z,100634.84
2023-03-12T03:52:45.476Z,100634.28
2023-03-12T03:55:32.220Z,100636.97
2023-03-12T03:58:18.805Z,100636.97
2023-03-12T04:01:06.172Z,100649.34
2023-03-12T04:03:52.771Z,100666.50
2023-03-12T04:06:40.495Z,100672.28
2023-03-12T04:09:27.000Z,100681.59
2023-03-12T04:12:13.172Z,100701.00
2023-03-12T04:15:01.426Z,100711.44
2023-03-12T04:17:48.276Z,100716.91
2023-03-12T04:20:34.894Z,100709.88
2023-03-12T04:23:22.591Z,100711.28
2023-03-12T04:26:09.938Z,100716.78
2023-03-12T04:28:56.534Z,100717.75
2023-03-12T04:31:43.079Z,100709.16
2023-03-12T04:34:29.554Z,100706.75
2023-03-12T04:37:16.435Z,100709.59
2023-03-12T04:40:07.840Z,100706.63
2023-03-12T04:42:54.833Z,100711.00
2023-03-12T04:45:42.627Z,100705.78
2023-03-12T04:48:29.264Z,100693.97
2023-03-12T04:51:15.865Z,100691.56
2023-03-12T04:54:04.701Z,100696.22
2023-03-12T04:56:52.987Z,100684.53
2023-03-12T04:59:41.755Z,100680.16
2023-03-12T05:02:28.744Z,100676.94
2023-03-12T05:05:15.380Z,100680.03
2023-03-12T05:08:01.537Z,100687.75
2023-03-12T05:10:47.786Z,100680.31
2023-03-12T05:13:38.032Z,100676.09
2023-03-12T05:16:25.011Z,100687.78
2023-03-12T05:19:11.564Z,100682.03
2023-03-12T05:21:58.052Z,100682.84
2023-03-12T05:24:44.491Z,100690.75
2023-03-12T05:27:32.022Z,100690.31
2023-03-12T05:30:20.441Z,100689.75
2023-03-12T05:33:06.826Z,100693.41
2023-03-12T05:35:53.724Z,100702.00
2023-03-12T05:38:40.639Z,100699.06
2023-03-12T05:41:29.924Z,100700.84
2023-03-12T05:44:22.493Z,100702.44
2023-03-12T05:47:13.794Z,100709.88
2023-03-12T05:50:00.889Z,100714.53
2023-03-12T05:52:50.358Z,100719.03
2023-03-12T05:55:37.658Z,100732.41
2023-03-12T05:58:24.359Z,100736.91
2023-03-12T06:01:16.238Z,100740.69
2023-03-12T06:04:04.916Z,100757.59
2023-03-12T06:06:51.539Z,100779.56
2023-03-12T06:09:38.024Z,100797.28
2023-03-12T06:12:24.927Z,100815.59
2023-03-12T06:15:12.154Z,100843.31
2023-03-12T06:17:58.787Z,100865.13
2023-03-12T06:20:46.714Z,100904.41
2023-03-12T06:23:33.150Z,100935.38
2023-03-12T06:26:21.031Z,100993.69
2023-03-12T06:29:07.213Z,101056.63
2023-03-12T06:31:53.857Z,101089.75
2023-03-12T06:34:40.222Z,101109.31
2023-03-12T06:37:28.120Z,101140.59
2023-03-12T06:40:14.551Z,101156.41
2023-03-12T06:43:00.759Z,101183.16
2023-03-12T06:45:47.549Z,101202.72
2023-03-12T06:48:36.775Z,101222.03
2023-03-12T06:51:23.268Z,101261.94
2023-03-12T06:54:10.901Z,101279.59
2023-03-12T06:56:59.263Z,101266.56
2023-03-12T06:59:45.547Z,101284.88
2023-03-12T07:02:31.860Z,101286.38
2023-03-12T07:05:18.406Z,101293.78
2023-03-12T07:08:04.953Z,101299.44
2023-03-12T07:10:52.481Z,101310.09
2023-03-12T07:13:38.840Z,101314.91
2023-03-12T07:16:25.447Z,101332.16
2023-03-12T07:19:12.014Z,101339.72
2023-03-12T07:21:58.481Z,101347.84
2023-03-12T07:24:44.678Z,101359.91
2023-03-12T07:27:32.207Z,101375.03
2023-03-12T07:30:18.949Z,101395.81
2023-03-12T07:33:06.393Z,101410.78
2023-03-12T07:35:52.655Z,101426.84
2023-03-12T07:38:39.054Z,101432.63
2023-03-12T07:41:25.569Z,101434.16
2023-03-12T07:44:13.397Z,101448.88
2023-03-12T07:47:09.761Z,101453.50
2023-03-12T07:50:03.388Z,101458.72
2023-03-12T07:52:50.074Z,101469.91
2023-03-12T07:55:36.457Z,101488.84
2023-03-12T07:58:23.206Z,101503.66
2023-03-12T08:01:10.849Z,101501.94
2023-03-12T08:03:57.540Z,101506.41
2023-03-12T08:06:44.456Z,101514.81
2023-03-12T08:09:30.750Z,101516.16
2023-03-12T08:12:17.198Z,101524.88
2023-03-12T08:15:03.765Z,101540.94
2023-03-12T08:17:51.347Z,101549.09
2023-03-12T08:20:37.761Z,101551.88
2023-03-12T08:23:24.597Z,101563.56
2023-03-12T08:26:10.702Z,101563.31
2023-03-12T08:28:57.154Z,101568.66
2023-03-12T08:32:01.564Z,101574.16
2023-03-12T08:34:51.653Z,101576.41
2023-03-12T08:37:38.189Z,101599.38
2023-03-12T08:40:24.690Z,101624.38
2023-03-12T08:43:10.744Z,101619.00
2023-03-12T08:45:57.977Z,101630.88
2023-03-12T08:48:44.609Z,101625.09
2023-03-12T08:51:32.332Z,101641.22
2023-03-12T08:54:19.400Z,101655.69
2023-03-12T08:57:06.063Z,101662.50
2023-03-12T08:59:52.489Z,101661.34
2023-03-12T09:02:39.368Z,101679.09
2023-03-12T09:05:26.108Z,101677.75
2023-03-12T09:08:13.581Z,101677.50
2023-03-12T09:10:59.999Z,101685.44
2023-03-12T09:16:52.964Z,101675.31
2023-03-12T09:19:39.366Z,101687.94
2023-03-12T09:22:25.525Z,101693.22
2023-03-12T09:25:13.680Z,101692.88
2023-03-12T09:28:02.078Z,101686.78
2023-03-12T09:30:48.887Z,101699.84
2023-03-12T09:33:35.934Z,101711.34
2023-03-12T09:36:22.275Z,101709.97
2023-03-12T09:39:08.863Z,101726.72
2023-03-12T09:41:56.835Z,101724.44
2023-03-12T09:44:46.706Z,101727.47
2023-03-12T09:47:36.492Z,101734.13
2023-03-12T09:50:27.930Z,101746.47
2023-03-12T09:53:20.949Z,101742.06
2023-03-12T09:56:13.465Z,101745.16
2023-03-12T09:59:02.248Z,101741.06
2023-03-12T10:01:53.321Z,101746.84
2023-03-12T10:04:58.596Z,101740.63
2023-03-12T10:07:53.241Z,101744.97
2023-03-12T10:10:54.888Z,101739.13
2023-03-12T10:13:53.780Z,101743.06
2023-03-12T10:16:55.496Z,101744.94
2023-03-12T10:20:02.208Z,101731.44
2023-03-12T10:22:57.173Z,101746.88
2023-03-12T10:25:51.954Z,101752.38
2023-03-12T10:28:43.271Z,101757.34
2023-03-12T10:31:35.705Z,101743.09
2023-03-12T10:34:30.738Z,101741.03
2023-03-12T10:37:22.067Z,101738.81
2023-03-12T10:40:16.342Z,101741.88
2023-03-12T10:43:03.471Z,101741.41
2023-03-12T10:46:00.957Z,101733.59
2023-03-12T10:48:47.476Z,101719.44
2023-03-12T10:51:54.194Z,101706.69
2023-03-12T10:54:44.740Z,101690.59
2023-03-12T10:57:41.172Z,101681.91
2023-03-12T11:00:29.829Z,101679.56
2023-03-12T11:03:22.383Z,101666.34
2023-03-12T11:06:15.773Z,101665.28
2023-03-12T11:09:17.484Z,101653.94
2023-03-12T11:12:23.175Z,101638.41
2023-03-12T11:15:23.604Z,101637.63
2023-03-12T11:18:36.091Z,101655.78
2023-03-12T11:21:25.556Z,101653.44
2023-03-12T11:24:17.261Z,101642.28
2023-03-12T11:27:06.950Z,101645.00
2023-03-12T11:29:55.353Z,101636.91
2023-03-12T11:32:46.326Z,101636.06
2023-03-12T11:35:46.426Z,101614.16
2023-03-12T11:38:39.348Z,101612.28
2023-03-12T11:41:40.554Z,101620.78
2023-03-12T11:44:33.523Z,101604.41
2023-03-12T11:47:40.765Z,101611.03
2023-03-12T11:50:34.341Z,101601.22
2023-03-12T11:53:34.240Z,101590.22
2023-03-12T11:56:30.586Z,101575.31
2023-03-12T11:59:36.832Z,101560.94
2023-03-12T12:02:41.725Z,101550.31
2023-03-12T12:05:37.525Z,101533.56
2023-03-12T12:08:44.887Z,101527.97
2023-03-12T12:11:41.743Z,101509.69
2023-03-12T12:14:42.109Z,101506.97
2023-03-12T12:17:34.619Z,101500.03
2023-03-12T12:20:28.818Z,101503.25
2023-03-12T12:23:23.728Z,101480.31
2023-03-12T12:26:13.413Z,101451.25
2023-03-12T12:29:17.521Z,101423.34
2023-03-12T12:32:06.927Z,101412.00
2023-03-12T12:35:14.263Z,101391.31
2023-03-12T12:38:06.164Z,101371.72
2023-03-12T12:40:56.510Z,101352.56
2023-03-12T12:43:47.659Z,101340.25
2023-03-12T12:46:39.030Z,101307.44
2023-03-12T12:49:30.528Z,101256.00
2023-03-12T12:52:20.194Z,101217.66
2023-03-12T12:55:15.628Z,101170.56
2023-03-12T12:58:05.833Z,101124.72
2023-03-12T13:00:55.561Z,101075.72
2023-03-12T13:03:44.687Z,101029.97
2023-03-12T13:06:55.321Z,100986.28
2023-03-12T13:09:43.435Z,100947.19
2023-03-12T13:12:32.666Z,100909.44
2023-03-12T13:15:40.023Z,100890.38
2023-03-12T13:18:28.747Z,100883.72
2023-03-12T13:21:25.493Z,100867.50
2023-03-12T13:24:23.542Z,100830.94
2023-03-12T13:27:18.994Z,100822.13
2023-03-12T13:30:40.231Z,100784.66
2023-03-12T13:33:40.933Z,100768.22
2023-03-12T13:36:30.667Z,100750.38
2023-03-12T13:39:28.836Z,100707.63
2023-03-12T13:42:37.750Z,100696.56
2023-03-12T13:45:27.971Z,100692.69
2023-03-12T13:48:18.073Z,100670.53
2023-03-12T13:51:16.316Z,100630.44
2023-03-12T13:54:04.871Z,100593.66
2023-03-12T13:56:58.521Z,100568.78
2023-03-12T13:59:46.650Z,100544.53
2023-03-12T14:02:37.713Z,100521.59
2023-03-12T14:05:24.296Z,100508.59
2023-03-12T14:08:27.781Z,100487.28
2023-03-12T14:11:24.710Z,100504.78
2023-03-12T14:14:45.763Z,100489.34
2023-03-12T14:17:34.489Z,100494.38
2023-03-12T14:20:23.095Z,100475.91
2023-03-12T14:23:16.358Z,100486.13
2023-03-12T14:26:04.544Z,100486.00
2023-03-12T14:28:58.661Z,100466.16
2023-03-12T14:31:46.024Z,100461.78
2023-03-12T14:34:39.652Z,100464.53
2023-03-12T14:37:31.641Z,100442.22
2023-03-12T14:40:25.352Z,100430.13
2023-03-12T14:43:23.613Z,100419.03
2023-03-12T14:46:18.835Z,100428.84
2023-03-12T14:49:05.188Z,100429.25
2023-03-12T14:51:51.516Z,100452.84
2023-03-12T14:54:39.631Z,100460.63
2023-03-12T14:57:25.956Z,100460.19
2023-03-12T15:00:24.348Z,100444.53
2023-03-12T15:03:16.882Z,100435.31
2023-03-12T15:06:03.129Z,100436.81
2023-03-12T15:08:49.954Z,100420.03
2023-03-12T15:11:38.566Z,100440.13
2023-03-12T15:14:28.185Z,100438.44
2023-03-12T15:17:17.901Z,100434.06
2023-03-12T15:20:16.215Z,100426.72
2023-03-12T15:23:04.517Z,100427.19
2023-03-12T15:26:09.758Z,100425.66
2023-03-12T15:28:57.737Z,100426.28
2023-03-12T15:31:45.081Z,100429.00
2023-03-12T15:34:34.106Z,100417.97
2023-03-12T15:37:32.381Z,100424.22
2023-03-12T15:40:23.278Z,100433.38
2023-03-12T15:43:19.122Z,100420.59
2023-03-12T15:46:08.007Z,100434.75
2023-03-12T15:49:00.294Z,100432.69
2023-03-12T15:51:59.726Z,100429.38
2023-03-12T15:55:04.661Z,100455.78
2023-03-12T15:57:52.915Z,100445.59
2023-03-12T16:00:44.540Z,100464.97
2023-03-12T16:03:31.280Z,100475.97
2023-03-12T16:06:23.204Z,100477.22
2023-03-12T16:09:15.787Z,100478.38
2023-03-12T16:12:04.026Z,100476.94
2023-03-12T16:14:50.741Z,100491.94
2023-03-12T16:17:37.629Z,100494.88
2023-03-12T16:20:26.276Z,100495.28
2023-03-12T16:23:12.862Z,100495.84
2023-03-12T16:26:00.124Z,100508.44
2023-03-12T16:28:51.231Z,100524.41
2023-03-12T16:31:37.807Z,100527.41
2023-03-12T16:34:24.113Z,100533.78
2023-03-12T16:37:11.956Z,100534.31
2023-03-12T16:40:00.095Z,100537.22
2023-03-12T16:42:49.731Z,100543.59
2023-03-12T16:45:38.430Z,100549.13
2023-03-12T16:48:26.376Z,100556.94
2023-03-12T16:51:15.724Z,100551.53
2023-03-12T16:54:10.311Z,100564.69
2023-03-12T16:56:58.012Z,100583.47
2023-03-12T16:59:44.569Z,100595.13
2023-03-12T17:02:32.722Z,100613.69
2023-03-12T17:05:19.213Z,100613.78
2023-03-12T17:08:05.929Z,100634.72
2023-03-12T17:10:52.396Z,100644.28
2023-03-12T17:13:38.568Z,100652.19
2023-03-12T17:16:26.019Z,100679.91
2023-03-12T17:19:14.189Z,100690.19
2023-03-12T17:22:01.586Z,100692.81
2023-03-12T17:24:47.848Z,100702.69
2023-03-12T17:27:34.215Z,100693.34
2023-03-12T17:30:21.997Z,100711.66
2023-03-12T17:33:10.790Z,100714.34
2023-03-12T17:36:00.527Z,100708.47
2023-03-12T17:38:48.000Z,100728.25
2023-03-12T17:41:35.800Z,100741.53
2023-03-12T17:44:22.068Z,100735.44
2023-03-12T17:47:08.229Z,100734.22
2023-03-12T17:49:54.383Z,100736.75
2023-03-12T17:52:42.291Z,100716.09
2023-03-12T17:55:28.766Z,100710.88
2023-03-12T17:58:15.036Z,100686.25
2023-03-12T18:01:01.230Z,100686.13
2023-03-12T18:03:47.932Z,100681.75
2023-03-12T18:06:34.460Z,100686.31
2023-03-12T18:09:22.069Z,100685.28
2023-03-12T18:12:09.598Z,100676.88
2023-03-12T18:14:56.184Z,100671.56
2023-03-12T18:17:44.512Z,100682.19
2023-03-12T18:20:38.644Z,100674.63
2023-03-12T18:23:26.485Z,100675.88
2023-03-12T18:26:15.848Z,100690.88
2023-03-12T18:29:02.600Z,100695.09
2023-03-12T18:31:49.204Z,100695.91
2023-03-12T18:34:35.793Z,100704.34
2023-03-12T18:37:23.018Z,100693.03
2023-03-12T18:40:10.920Z,100695.84
2023-03-12T18:43:00.262Z,100678.31
2023-03-12T18:45:47.300Z,100674.53
2023-03-12T18:48:33.601Z,100667.84
2023-03-12T18:51:20.557Z,100664.03
2023-03-12T18:54:07.043Z,100652.94
2023-03-12T18:56:53.421Z,100654.41
2023-03-12T18:59:45.113Z,100652.78
2023-03-12T19:02:31.350Z,100656.34
2023-03-12T19:05:18.296Z,100639.34
2023-03-12T19:08:04.994Z,100620.72
2023-03-12T19:10:51.290Z,100615.53
2023-03-12T19:13:38.343Z,100610.06
2023-03-12T19:16:26.132Z,100611.81
2023-03-12T19:19:14.634Z,100609.94
2023-03-12T19:22:02.087Z,100620.38
2023-03-12T19:24:48.404Z,100630.56
2023-03-12T19:27:35.102Z,100634.03
2023-03-12T19:30:21.318Z,100639.88
2023-03-12T19:33:08.936Z,100649.72
2023-03-12T19:35:56.268Z,100662.09
2023-03-12T19:38:43.008Z,100658.44
2023-03-12T19:41:29.128Z,100670.88
2023-03-12T19:44:15.424Z,100675.13
2023-03-12T19:47:02.243Z,100681.75
2023-03-12T19:49:49.955Z,100698.84
2023-03-12T19:52:36.387Z,100706.28
2023-03-12T19:55:23.278Z,100706.56
2023-03-12T19:58:12.229Z,100695.38
2023-03-12T20:01:00.374Z,100695.91
2023-03-12T20:03:47.020Z,100692.47
2023-03-12T20:06:34.834Z,100690.31
2023-03-12T20:09:21.073Z,100686.88
2023-03-12T20:12:07.938Z,100679.22
2023-03-12T20:14:54.002Z,100687.75
2023-03-12T20:17:40.496Z,100684.44
2023-03-12T20:20:26.995Z,100664.47
2023-03-12T20:23:14.647Z,100655.19
2023-03-12T20:26:01.112Z,100649.22
2023-03-12T20:28:47.617Z,100640.38
2023-03-12T20:31:34.144Z,100629.16
2023-03-12T20:34:20.407Z,100627.03
2023-03-12T20:37:07.053Z,100620.31
2023-03-12T20:39:54.762Z,100617.06
2023-03-12T20:42:41.604Z,100606.06
2023-03-12T20:45:27.642Z,100607.28
2023-03-12T20:48:14.013Z,100610.09
2023-03-12T20:51:00.572Z,100613.84
2023-03-12T20:53:47.143Z,100610.81
2023-03-12T20:56:34.876Z,100630.75
2023-03-12T20:59:21.320Z,100621.34
2023-03-12T21:02:08.360Z,100627.50
2023-03-12T21:04:54.674Z,100618.31
2023-03-12T21:07:41.542Z,100619.31
2023-03-12T21:10:28.439Z,100607.13
2023-03-12T21:13:16.624Z,100602.53
2023-03-12T21:16:06.297Z,100597.47
2023-03-12T21:18:56.832Z,100598.19
2023-03-12T21:21:43.027Z,100596.22
2023-03-12T21:24:29.147Z,100592.31
2023-03-12T21:27:15.597Z,100573.59
2023-03-12T21:30:03.282Z,100589.25
2023-03-12T21:32:49.901Z,100587.63
2023-03-12T21:35:36.548Z,100587.63
2023-03-12T21:38:22.742Z,100599.91
2023-03-12T21:41:11.163Z,100591.50
2023-03-12T21:44:01.899Z,100577.16
2023-03-12T21:46:49.301Z,100586.31
2023-03-12T21:49:36.152Z,100584.38
2023-03-12T21:52:22.633Z,100594.06
2023-03-12T21:55:10.058Z,100592.03
2023-03-12T21:57:56.318Z,100604.25
2023-03-12T22:00:42.872Z,100607.47
2023-03-12T22:03:30.548Z,100606.94
2023-03-12T22:06:17.509Z,100605.34
2023-03-12T22:09:03.912Z,100598.81
2023-03-12T22:11:50.304Z,100591.25
2023-03-12T22:14:36.754Z,100586.91
2023-03-12T22:17:22.891Z,100585.13
2023-03-12T22:20:12.213Z,100583.44
2023-03-12T22:22:58.554Z,100595.09
2023-03-12T22:25:44.840Z,100595.56
2023-03-12T22:28:32.113Z,100616.91
2023-03-12T22:31:19.328Z,100632.47
2023-03-12T22:34:05.949Z,100641.63
2023-03-12T22:36:53.644Z,100660.13
2023-03-12T22:39:40.888Z,100667.69
2023-03-12T22:42:27.350Z,100682.22
2023-03-12T22:45:13.889Z,100704.53
2023-03-12T22:48:00.327Z,100723.34
2023-03-12T22:50:54.029Z,100745.13
2023-03-12T22:53:41.675Z,100766.75
2023-03-12T22:56:28.306Z,100779.75
2023-03-12T22:59:14.532Z,100787.72
2023-03-12T23:02:00.877Z,100808.47
2023-03-12T23:04:47.178Z,100821.16
2023-03-12T23:07:33.741Z,100828.47
2023-03-12T23:10:21.620Z,100844.22
2023-03-12T23:13:09.258Z,100846.25
2023-03-12T23:15:55.672Z,100865.34
2023-03-12T23:18:42.883Z,100875.31
2023-03-12T23:21:29.958Z,100877.53
2023-03-12T23:24:15.937Z,100885.88
2023-03-12T23:27:03.737Z,100877.47
2023-03-12T23:29:49.762Z,100878.69
2023-03-12T23:32:36.081Z,100874.47
2023-03-12T23:35:22.747Z,100878.84
2023-03-12T23:38:09.198Z,100879.66
2023-03-12T23:41:00.239Z,100868.03
2023-03-12T23:43:47.897Z,100868.66
2023-03-12T23:46:34.822Z,100860.56
2023-03-12T23:49:21.066Z,100857.19
2023-03-12T23:52:07.789Z,100857.13
2023-03-12T23:54:53.981Z,100849.31
2023-03-12T23:57:40.155Z,100844.09
